sensor_id;sensor_type;location;lat;lon;timestamp;temperature;humidity
13072;DHT22;6602;58.934;11.166;2023-03-11T00:03:38;-4.40;99.90
13072;DHT22;6602;58.934;11.166;2023-03-11T00:08:43;-4.30;99.90
13072;DHT22;6602;58.934;11.166;2023-03-11T00:13:44;-4.30;99.90
13072;DHT22;6602;58.934;11.166;2023-03-11T00:18:45;-4.30;99.90
13072;DHT22;6602;58.934;11.166;2023-03-11T00:23:49;-4.30;99.90
13072;DHT22;6602;58.934;11.166;2023-03-11T00:28:50;-4.30;99.90
13072;DHT22;6602;58.934;11.166;2023-03-11T00:33:54;-4.40;99.90
13072;DHT22;6602;58.934;11.166;2023-03-11T00:38:57;-4.40;99.90
13072;DHT22;6602;58.934;11.166;2023-03-11T00:44:00;-4.60;99.90
13072;DHT22;6602;58.934;11.166;2023-03-11T00:49:04;-4.60;99.90
13072;DHT22;6602;58.934;11.166;2023-03-11T00:54:08;-4.50;99.90
13072;DHT22;6602;58.934;11.166;2023-03-11T00:59:09;-4.60;99.90
13072;DHT22;6602;58.934;11.166;2023-03-11T01:04:10;-4.70;99.90
13072;DHT22;6602;58.934;11.166;2023-03-11T01:09:13;-4.70;99.90
13072;DHT22;6602;58.934;11.166;2023-03-11T01:14:14;-4.80;99.90
13072;DHT22;6602;58.934;11.166;2023-03-11T01:19:18;-5.00;99.90
13072;DHT22;6602;58.934;11.166;2023-03-11T01:24:22;-5.00;99.90
13072;DHT22;6602;58.934;11.166;2023-03-11T01:29:22;-5.00;99.90
13072;DHT22;6602;58.934;11.166;2023-03-11T01:34:26;-5.00;99.90
13072;DHT22;6602;58.934;11.166;2023-03-11T01:39:27;-5.00;99.90
13072;DHT22;6602;58.934;11.166;2023-03-11T01:44:31;-4.90;99.90
13072;DHT22;6602;58.934;11.166;2023-03-11T01:49:33;-5.00;99.90
13072;DHT22;6602;58.934;11.166;2023-03-11T01:54:38;-5.00;99.90
13072;DHT22;6602;58.934;11.166;2023-03-11T01:59:44;-5.10;99.90
13072;DHT22;6602;58.934;11.166;2023-03-11T02:04:52;-5.30;99.90
13072;DHT22;6602;58.934;11.166;2023-03-11T02:09:54;-5.50;99.90
13072;DHT22;6602;58.934;11.166;2023-03-11T02:14:55;-5.60;99.90
13072;DHT22;6602;58.934;11.166;2023-03-11T02:20:11;-5.70;99.90
13072;DHT22;6602;58.934;11.166;2023-03-11T02:30:33;-5.90;99.90
13072;DHT22;6602;58.934;11.166;2023-03-11T02:35:36;-6.10;99.90
13072;DHT22;6602;58.934;11.166;2023-03-11T02:40:45;-6.10;99.90
13072;DHT22;6602;58.934;11.166;2023-03-11T02:45:49;-6.20;99.90
13072;DHT22;6602;58.934;11.166;2023-03-11T02:50:59;-6.30;99.90
13072;DHT22;6602;58.934;11.166;2023-03-11T02:56:00;-6.30;99.90
13072;DHT22;6602;58.934;11.166;2023-03-11T03:01:04;-6.50;99.90
13072;DHT22;6602;58.934;11.166;2023-03-11T03:06:11;-6.60;99.90
13072;DHT22;6602;58.934;11.166;2023-03-11T03:11:12;-6.40;99.90
13072;DHT22;6602;58.934;11.166;2023-03-11T03:16:23;-6.50;99.90
13072;DHT22;6602;58.934;11.166;2023-03-11T03:21:23;-6.60;99.90
13072;DHT22;6602;58.934;11.166;2023-03-11T03:26:24;-6.70;99.90
13072;DHT22;6602;58.934;11.166;2023-03-11T03:31:25;-6.70;99.90
13072;DHT22;6602;58.934;11.166;2023-03-11T03:36:27;-6.80;99.90
13072;DHT22;6602;58.934;11.166;2023-03-11T03:41:31;-6.90;99.90
13072;DHT22;6602;58.934;11.166;2023-03-11T03:46:32;-7.10;99.90
13072;DHT22;6602;58.934;11.166;2023-03-11T03:51:36;-7.20;99.90
13072;DHT22;6602;58.934;11.166;2023-03-11T03:56:37;-7.30;99.90
13072;DHT22;6602;58.934;11.166;2023-03-11T04:01:38;-7.30;99.90
13072;DHT22;6602;58.934;11.166;2023-03-11T04:06:39;-7.30;99.90
13072;DHT22;6602;58.934;11.166;2023-03-11T04:11:41;-7.40;99.90
13072;DHT22;6602;58.934;11.166;2023-03-11T04:16:44;-7.40;99.90
13072;DHT22;6602;58.934;11.166;2023-03-11T04:21:45;-7.40;99.90
13072;DHT22;6602;58.934;11.166;2023-03-11T04:26:46;-7.30;99.90
13072;DHT22;6602;58.934;11.166;2023-03-11T04:31:48;-7.20;99.90
13072;DHT22;6602;58.934;11.166;2023-03-11T04:36:53;-7.20;99.90
13072;DHT22;6602;58.934;11.166;2023-03-11T04:41:54;-7.50;99.90
13072;DHT22;6602;58.934;11.166;2023-03-11T04:46:56;-7.60;99.90
13072;DHT22;6602;58.934;11.166;2023-03-11T04:51:59;-7.80;99.90
13072;DHT22;6602;58.934;11.166;2023-03-11T04:57:00;-7.80;99.90
13072;DHT22;6602;58.934;11.166;2023-03-11T05:02:02;-7.80;99.90
13072;DHT22;6602;58.934;11.166;2023-03-11T05:07:03;-7.80;99.90
13072;DHT22;6602;58.934;11.166;2023-03-11T05:12:04;-7.90;99.90
13072;DHT22;6602;58.934;11.166;2023-03-11T05:17:10;-7.70;99.90
13072;DHT22;6602;58.934;11.166;2023-03-11T05:22:12;-7.80;99.90
13072;DHT22;6602;58.934;11.166;2023-03-11T05:27:19;-7.90;99.90
13072;DHT22;6602;58.934;11.166;2023-03-11T05:32:23;-7.90;99.90
13072;DHT22;6602;58.934;11.166;2023-03-11T05:37:30;-8.00;99.90
13072;DHT22;6602;58.934;11.166;2023-03-11T05:42:34;-8.00;99.90
13072;DHT22;6602;58.934;11.166;2023-03-11T05:47:36;-8.10;99.90
13072;DHT22;6602;58.934;11.166;2023-03-11T05:52:40;-8.30;99.90
13072;DHT22;6602;58.934;11.166;2023-03-11T05:57:42;-8.20;99.90
13072;DHT22;6602;58.934;11.166;2023-03-11T06:02:45;-8.10;99.90
13072;DHT22;6602;58.934;11.166;2023-03-11T06:07:46;-8.10;99.90
13072;DHT22;6602;58.934;11.166;2023-03-11T06:12:51;-8.20;99.90
13072;DHT22;6602;58.934;11.166;2023-03-11T06:17:52;-8.20;99.90
13072;DHT22;6602;58.934;11.166;2023-03-11T06:22:56;-8.20;99.90
13072;DHT22;6602;58.934;11.166;2023-03-11T06:28:00;-8.00;99.90
13072;DHT22;6602;58.934;11.166;2023-03-11T06:33:00;-7.70;99.90
13072;DHT22;6602;58.934;11.166;2023-03-11T06:38:04;-7.40;99.90
13072;DHT22;6602;58.934;11.166;2023-03-11T06:43:06;-7.10;99.90
13072;DHT22;6602;58.934;11.166;2023-03-11T06:48:10;-6.60;99.90
13072;DHT22;6602;58.934;11.166;2023-03-11T06:53:12;-6.30;99.90
13072;DHT22;6602;58.934;11.166;2023-03-11T06:58:16;-5.80;99.90
13072;DHT22;6602;58.934;11.166;2023-03-11T07:03:19;-5.30;99.90
13072;DHT22;6602;58.934;11.166;2023-03-11T07:08:20;-5.20;99.90
13072;DHT22;6602;58.934;11.166;2023-03-11T07:13:24;-5.00;99.90
13072;DHT22;6602;58.934;11.166;2023-03-11T07:18:27;-4.80;99.90
13072;DHT22;6602;58.934;11.166;2023-03-11T07:23:31;-4.60;99.90
13072;DHT22;6602;58.934;11.166;2023-03-11T07:28:35;-4.40;99.90
13072;DHT22;6602;58.934;11.166;2023-03-11T07:33:39;-4.20;99.90
13072;DHT22;6602;58.934;11.166;2023-03-11T07:38:44;-3.60;99.90
13072;DHT22;6602;58.934;11.166;2023-03-11T07:43:47;-2.90;99.90
13072;DHT22;6602;58.934;11.166;2023-03-11T07:48:53;-3.00;99.90
13072;DHT22;6602;58.934;11.166;2023-03-11T07:54:01;-3.20;99.90
13072;DHT22;6602;58.934;11.166;2023-03-11T07:59:08;-3.10;99.90
13072;DHT22;6602;58.934;11.166;2023-03-11T08:04:10;-2.60;99.90
13072;DHT22;6602;58.934;11.166;2023-03-11T08:09:14;-1.80;99.90
13072;DHT22;6602;58.934;11.166;2023-03-11T08:14:29;-0.60;99.90
13072;DHT22;6602;58.934;11.166;2023-03-11T08:19:50;0.80;99.90
13072;DHT22;6602;58.934;11.166;2023-03-11T08:24:52;1.90;99.90
13072;DHT22;6602;58.934;11.166;2023-03-11T08:29:53;2.70;99.90
13072;DHT22;6602;58.934;11.166;2023-03-11T08:35:06;3.10;99.90
13072;DHT22;6602;58.934;11.166;2023-03-11T08:40:07;3.10;99.90
13072;DHT22;6602;58.934;11.166;2023-03-11T08:45:17;2.70;99.90
13072;DHT22;6602;58.934;11.166;2023-03-11T08:50:21;3.00;99.90
13072;DHT22;6602;58.934;11.166;2023-03-11T08:55:25;2.90;99.90
13072;DHT22;6602;58.934;11.166;2023-03-11T09:00:28;2.50;99.90
13072;DHT22;6602;58.934;11.166;2023-03-11T09:05:30;2.10;99.90
13072;DHT22;6602;58.934;11.166;2023-03-11T09:10:31;1.90;99.90
13072;DHT22;6602;58.934;11.166;2023-03-11T09:15:35;1.90;99.90
13072;DHT22;6602;58.934;11.166;2023-03-11T09:20:51;2.50;99.90
13072;DHT22;6602;58.934;11.166;2023-03-11T09:25:58;3.50;99.90
13072;DHT22;6602;58.934;11.166;2023-03-11T09:31:08;3.80;99.90
13072;DHT22;6602;58.934;11.166;2023-03-11T09:36:14;4.00;99.90
13072;DHT22;6602;58.934;11.166;2023-03-11T09:41:39;4.00;99.90
13072;DHT22;6602;58.934;11.166;2023-03-11T09:47:03;3.70;99.90
13072;DHT22;6602;58.934;11.166;2023-03-11T09:57:49;3.10;99.90
13072;DHT22;6602;58.934;11.166;2023-03-11T10:03:36;3.40;99.90
13072;DHT22;6602;58.934;11.166;2023-03-11T10:26:22;4.20;99.90
13072;DHT22;6602;58.934;11.166;2023-03-11T10:37:34;4.30;99.90
13072;DHT22;6602;58.934;11.166;2023-03-11T10:42:47;4.30;99.90
13072;DHT22;6602;58.934;11.166;2023-03-11T10:48:11;4.20;99.90
13072;DHT22;6602;58.934;11.166;2023-03-11T10:53:33;4.00;99.90
13072;DHT22;6602;58.934;11.166;2023-03-11T10:59:20;4.00;99.90
13072;DHT22;6602;58.934;11.166;2023-03-11T11:04:40;4.10;99.90
13072;DHT22;6602;58.934;11.166;2023-03-11T11:15:35;3.80;99.90
13072;DHT22;6602;58.934;11.166;2023-03-11T11:20:57;3.80;99.90
13072;DHT22;6602;58.934;11.166;2023-03-11T11:31:45;4.10;99.90
13072;DHT22;6602;58.934;11.166;2023-03-11T11:37:11;4.10;99.90
13072;DHT22;6602;58.934;11.166;2023-03-11T11:42:38;4.30;99.90
13072;DHT22;6602;58.934;11.166;2023-03-11T11:48:21;4.20;99.90
13072;DHT22;6602;58.934;11.166;2023-03-11T11:53:56;3.90;99.90
13072;DHT22;6602;58.934;11.166;2023-03-11T11:59:20;3.70;99.90
13072;DHT22;6602;58.934;11.166;2023-03-11T12:16:15;3.40;99.90
13072;DHT22;6602;58.934;11.166;2023-03-11T12:22:22;3.50;99.90
13072;DHT22;6602;58.934;11.166;2023-03-11T12:27:48;3.60;99.90
13072;DHT22;6602;58.934;11.166;2023-03-11T12:33:15;3.70;99.90
13072;DHT22;6602;58.934;11.166;2023-03-11T12:38:39;3.50;99.90
13072;DHT22;6602;58.934;11.166;2023-03-11T12:44:24;3.20;99.90
13072;DHT22;6602;58.934;11.166;2023-03-11T12:49:52;3.00;99.90
13072;DHT22;6602;58.934;11.166;2023-03-11T13:00:52;3.10;99.90
13072;DHT22;6602;58.934;11.166;2023-03-11T13:11:57;2.90;99.90
13072;DHT22;6602;58.934;11.166;2023-03-11T13:17:27;2.80;99.90
13072;DHT22;6602;58.934;11.166;2023-03-11T13:28:17;2.70;99.90
13072;DHT22;6602;58.934;11.166;2023-03-11T13:33:52;2.60;99.90
13072;DHT22;6602;58.934;11.166;2023-03-11T13:44:47;2.60;99.90
13072;DHT22;6602;58.934;11.166;2023-03-11T13:50:22;2.60;99.90
13072;DHT22;6602;58.934;11.166;2023-03-11T13:55:44;2.60;99.90
13072;DHT22;6602;58.934;11.166;2023-03-11T14:01:15;2.60;99.90
13072;DHT22;6602;58.934;11.166;2023-03-11T14:06:35;2.60;99.90
13072;DHT22;6602;58.934;11.166;2023-03-11T14:12:03;2.60;99.90
13072;DHT22;6602;58.934;11.166;2023-03-11T14:17:23;2.70;99.90
13072;DHT22;6602;58.934;11.166;2023-03-11T14:22:47;2.70;99.90
13072;DHT22;6602;58.934;11.166;2023-03-11T14:28:18;2.70;99.90
13072;DHT22;6602;58.934;11.166;2023-03-11T14:33:38;2.70;99.90
13072;DHT22;6602;58.934;11.166;2023-03-11T14:38:42;2.70;99.90
13072;DHT22;6602;58.934;11.166;2023-03-11T14:44:02;2.70;99.90
13072;DHT22;6602;58.934;11.166;2023-03-11T14:49:22;2.70;99.90
13072;DHT22;6602;58.934;11.166;2023-03-11T14:54:42;2.70;99.90
13072;DHT22;6602;58.934;11.166;2023-03-11T15:00:04;2.70;99.90
13072;DHT22;6602;58.934;11.166;2023-03-11T15:05:47;2.70;99.90
13072;DHT22;6602;58.934;11.166;2023-03-11T15:11:19;2.70;99.90
13072;DHT22;6602;58.934;11.166;2023-03-11T15:16:39;2.80;99.90
13072;DHT22;6602;58.934;11.166;2023-03-11T15:22:24;2.80;99.90
13072;DHT22;6602;58.934;11.166;2023-03-11T15:27:45;2.70;99.90
13072;DHT22;6602;58.934;11.166;2023-03-11T15:33:20;2.60;99.90
13072;DHT22;6602;58.934;11.166;2023-03-11T15:38:39;2.60;99.90
13072;DHT22;6602;58.934;11.166;2023-03-11T15:43:59;2.60;99.90
13072;DHT22;6602;58.934;11.166;2023-03-11T15:49:21;2.60;99.90
13072;DHT22;6602;58.934;11.166;2023-03-11T15:54:41;2.60;99.90
13072;DHT22;6602;58.934;11.166;2023-03-11T16:00:01;2.60;99.90
13072;DHT22;6602;58.934;11.166;2023-03-11T16:05:22;2.60;99.90
13072;DHT22;6602;58.934;11.166;2023-03-11T16:10:42;2.60;99.90
13072;DHT22;6602;58.934;11.166;2023-03-11T16:16:02;2.40;99.90
13072;DHT22;6602;58.934;11.166;2023-03-11T16:21:26;2.40;99.90
13072;DHT22;6602;58.934;11.166;2023-03-11T16:26:50;2.40;99.90
13072;DHT22;6602;58.934;11.166;2023-03-11T16:32:10;2.30;99.90
13072;DHT22;6602;58.934;11.166;2023-03-11T16:37:30;2.30;99.90
13072;DHT22;6602;58.934;11.166;2023-03-11T16:42:50;2.20;99.90
13072;DHT22;6602;58.934;11.166;2023-03-11T16:48:12;2.20;99.90
13072;DHT22;6602;58.934;11.166;2023-03-11T16:53:32;2.10;99.90
13072;DHT22;6602;58.934;11.166;2023-03-11T16:58:51;2.00;99.90
13072;DHT22;6602;58.934;11.166;2023-03-11T17:04:11;2.00;99.90
13072;DHT22;6602;58.934;11.166;2023-03-11T17:09:31;1.90;99.90
13072;DHT22;6602;58.934;11.166;2023-03-11T17:14:52;1.90;99.90
13072;DHT22;6602;58.934;11.166;2023-03-11T17:20:12;1.80;99.90
13072;DHT22;6602;58.934;11.166;2023-03-11T17:25:31;1.80;99.90
13072;DHT22;6602;58.934;11.166;2023-03-11T17:30:50;1.80;99.90
13072;DHT22;6602;58.934;11.166;2023-03-11T17:36:13;1.70;99.90
13072;DHT22;6602;58.934;11.166;2023-03-11T17:41:33;1.80;99.90
13072;DHT22;6602;58.934;11.166;2023-03-11T17:46:53;1.80;99.90
13072;DHT22;6602;58.934;11.166;2023-03-11T17:52:03;1.80;99.90
13072;DHT22;6602;58.934;11.166;2023-03-11T17:57:04;1.80;99.90
13072;DHT22;6602;58.934;11.166;2023-03-11T18:02:24;1.80;99.90
13072;DHT22;6602;58.934;11.166;2023-03-11T18:07:30;1.80;99.90
13072;DHT22;6602;58.934;11.166;2023-03-11T18:12:43;1.80;99.90
13072;DHT22;6602;58.934;11.166;2023-03-11T18:18:00;1.80;99.90
13072;DHT22;6602;58.934;11.166;2023-03-11T18:23:08;1.80;99.90
13072;DHT22;6602;58.934;11.166;2023-03-11T18:28:12;1.80;99.90
13072;DHT22;6602;58.934;11.166;2023-03-11T18:33:21;1.80;99.90
13072;DHT22;6602;58.934;11.166;2023-03-11T18:38:23;1.80;99.90
13072;DHT22;6602;58.934;11.166;2023-03-11T18:43:30;1.80;99.90
13072;DHT22;6602;58.934;11.166;2023-03-11T18:48:43;1.80;99.90
13072;DHT22;6602;58.934;11.166;2023-03-11T18:53:46;1.80;99.90
13072;DHT22;6602;58.934;11.166;2023-03-11T18:59:03;1.70;99.90
13072;DHT22;6602;58.934;11.166;2023-03-11T19:04:08;1.70;99.90
13072;DHT22;6602;58.934;11.166;2023-03-11T19:09:16;1.70;99.90
13072;DHT22;6602;58.934;11.166;2023-03-11T19:14:40;1.60;99.90
13072;DHT22;6602;58.934;11.166;2023-03-11T19:19:47;1.50;99.90
13072;DHT22;6602;58.934;11.166;2023-03-11T19:24:53;1.50;99.90
13072;DHT22;6602;58.934;11.166;2023-03-11T19:30:00;1.50;99.90
13072;DHT22;6602;58.934;11.166;2023-03-11T19:35:02;1.40;99.90
13072;DHT22;6602;58.934;11.166;2023-03-11T19:40:08;1.40;99.90
13072;DHT22;6602;58.934;11.166;2023-03-11T19:45:09;1.30;99.90
13072;DHT22;6602;58.934;11.166;2023-03-11T19:50:17;1.20;99.90
13072;DHT22;6602;58.934;11.166;2023-03-11T19:55:18;1.20;99.90
13072;DHT22;6602;58.934;11.166;2023-03-11T20:00:21;1.10;99.90
13072;DHT22;6602;58.934;11.166;2023-03-11T20:05:28;1.10;99.90
13072;DHT22;6602;58.934;11.166;2023-03-11T20:10:29;1.10;99.90
13072;DHT22;6602;58.934;11.166;2023-03-11T20:15:30;1.10;99.90
13072;DHT22;6602;58.934;11.166;2023-03-11T20:20:32;1.10;99.90
13072;DHT22;6602;58.934;11.166;2023-03-11T20:25:40;1.00;99.90
13072;DHT22;6602;58.934;11.166;2023-03-11T20:30:41;1.00;99.90
13072;DHT22;6602;58.934;11.166;2023-03-11T20:35:43;1.00;99.90
13072;DHT22;6602;58.934;11.166;2023-03-11T20:40:44;0.90;99.90
13072;DHT22;6602;58.934;11.166;2023-03-11T20:45:56;0.90;99.90
13072;DHT22;6602;58.934;11.166;2023-03-11T20:51:04;0.80;99.90
13072;DHT22;6602;58.934;11.166;2023-03-11T20:56:08;0.80;99.90
13072;DHT22;6602;58.934;11.166;2023-03-11T21:01:20;0.80;99.90
13072;DHT22;6602;58.934;11.166;2023-03-11T21:06:40;0.70;99.90
13072;DHT22;6602;58.934;11.166;2023-03-11T21:11:56;0.70;99.90
13072;DHT22;6602;58.934;11.166;2023-03-11T21:17:00;0.60;99.90
13072;DHT22;6602;58.934;11.166;2023-03-11T21:22:04;0.50;99.90
13072;DHT22;6602;58.934;11.166;2023-03-11T21:27:13;0.50;99.90
13072;DHT22;6602;58.934;11.166;2023-03-11T21:32:16;0.50;99.90
13072;DHT22;6602;58.934;11.166;2023-03-11T21:37:21;0.40;99.90
13072;DHT22;6602;58.934;11.166;2023-03-11T21:42:28;0.30;99.90
13072;DHT22;6602;58.934;11.166;2023-03-11T21:47:31;0.30;99.90
13072;DHT22;6602;58.934;11.166;2023-03-11T21:52:35;0.30;99.90
13072;DHT22;6602;58.934;11.166;2023-03-11T21:57:45;0.30;99.90
13072;DHT22;6602;58.934;11.166;2023-03-11T22:02:50;0.30;99.90
13072;DHT22;6602;58.934;11.166;2023-03-11T22:07:51;0.20;99.90
13072;DHT22;6602;58.934;11.166;2023-03-11T22:12:54;0.20;99.90
13072;DHT22;6602;58.934;11.166;2023-03-11T22:18:07;0.10;99.90
13072;DHT22;6602;58.934;11.166;2023-03-11T22:23:11;0.10;99.90
13072;DHT22;6602;58.934;11.166;2023-03-11T22:28:22;0.00;99.90
13072;DHT22;6602;58.934;11.166;2023-03-11T22:33:26;0.00;99.90
13072;DHT22;6602;58.934;11.166;2023-03-11T22:38:31;0.00;99.90
13072;DHT22;6602;58.934;11.166;2023-03-11T22:43:37;-0.10;99.90
13072;DHT22;6602;58.934;11.166;2023-03-11T22:48:40;-0.10;99.90
13072;DHT22;6602;58.934;11.166;2023-03-11T22:53:48;-0.10;99.90
13072;DHT22;6602;58.934;11.166;2023-03-11T22:58:52;-0.10;99.90
13072;DHT22;6602;58.934;11.166;2023-03-11T23:03:56;-0.10;99.90
13072;DHT22;6602;58.934;11.166;2023-03-11T23:09:06;-0.10;99.90
13072;DHT22;6602;58.934;11.166;2023-03-11T23:14:09;-0.10;99.90
13072;DHT22;6602;58.934;11.166;2023-03-11T23:19:15;-0.10;99.90
13072;DHT22;6602;58.934;11.166;2023-03-11T23:24:19;-0.10;99.90
13072;DHT22;6602;58.934;11.166;2023-03-11T23:29:23;-0.10;99.90
13072;DHT22;6602;58.934;11.166;2023-03-11T23:34:27;-0.10;99.90
13072;DHT22;6602;58.934;11.166;2023-03-11T23:39:27;-0.20;99.90
13072;DHT22;6602;58.934;11.166;2023-03-11T23:44:34;-0.20;99.90
13072;DHT22;6602;58.934;11.166;2023-03-11T23:49:41;-0.30;99.90
13072;DHT22;6602;58.934;11.166;2023-03-11T23:54:44;-0.30;99.90
13072;DHT22;6602;58.934;11.166;2023-03-11T23:59:48;-0.40;99.90
